Time;durP1;ratioP1;P1;durP2;ratioP2;P2;SDS_P1;SDS_P2;PMS_P1;PMS_P2;Temp;Humidity;BMP_temperature;BMP_pressure;BME280_temperature;BME280_humidity;BME280_pressure;Samples;Min_cycle;Max_cycle;Signal;HPM_P1;HPM_P2
2024/03/23 00:00:01;;;;;;;8.95;5.20;;;;;;;4.00;57.48;94788.19;5159980;27;20052;-74
2024/03/23 00:02:28;;;;;;;10.48;5.40;;;;;;;4.00;58.10;94793.31;5140151;27;20069;-75
2024/03/23 00:04:54;;;;;;;10.60;5.85;;;;;;;4.00;57.82;94787.38;5151251;27;20022;-74
2024/03/23 00:07:21;;;;;;;7.57;5.30;;;;;;;3.93;58.35;94786.91;5145651;27;20428;-74
2024/03/23 00:09:47;;;;;;;9.20;5.95;;;;;;;3.93;58.56;94789.47;5143335;27;20042;-75
2024/03/23 00:12:14;;;;;;;10.40;6.65;;;;;;;3.92;58.39;94792.13;5136886;27;20125;-75
2024/03/23 00:14:41;;;;;;;10.30;6.05;;;;;;;3.88;58.52;94791.47;5142593;27;20042;-74
2024/03/23 00:17:08;;;;;;;11.88;6.85;;;;;;;3.81;59.00;94792.72;5163299;27;20041;-75
2024/03/23 00:19:34;;;;;;;12.25;6.43;;;;;;;3.73;59.24;94782.91;5150142;27;20026;-75
2024/03/23 00:22:01;;;;;;;10.27;6.72;;;;;;;3.57;59.33;94793.19;5151620;27;20425;-75
2024/03/23 00:24:28;;;;;;;9.93;6.22;;;;;;;3.60;59.57;94786.25;5152690;27;20035;-74
2024/03/23 00:26:54;;;;;;;10.50;6.55;;;;;;;3.56;59.96;94788.94;5153171;27;20042;-74
2024/03/23 00:29:20;;;;;;;11.35;6.70;;;;;;;3.36;60.68;94781.53;5153147;27;20030;-74
2024/03/23 00:31:47;;;;;;;10.98;6.47;;;;;;;3.36;60.80;94786.66;5112683;27;20076;-74
2024/03/23 00:34:13;;;;;;;10.40;6.30;;;;;;;3.29;61.02;94790.50;5111533;27;20053;-74
2024/03/23 00:36:40;;;;;;;9.40;6.10;;;;;;;3.10;61.68;94791.50;5132210;27;20054;-74
2024/03/23 00:39:08;;;;;;;9.32;6.70;;;;;;;3.17;61.38;94788.59;5134101;27;20499;-74
2024/03/23 00:41:35;;;;;;;10.63;6.47;;;;;;;3.08;61.47;94788.16;5138813;27;20032;-73
2024/03/23 00:44:01;;;;;;;10.48;6.60;;;;;;;3.03;61.90;94787.59;5147585;27;20035;-73
2024/03/23 00:46:27;;;;;;;10.65;6.28;;;;;;;2.94;62.20;94787.25;5134009;27;20038;-73
2024/03/23 00:48:54;;;;;;;10.77;6.50;;;;;;;3.02;62.26;94783.38;5132500;27;20049;-73
2024/03/23 00:51:20;;;;;;;10.30;6.13;;;;;;;2.98;62.12;94783.59;5141552;27;20045;-73
2024/03/23 00:53:45;;;;;;;10.80;6.75;;;;;;;2.76;63.32;94777.06;5153257;27;20023;-73
2024/03/23 00:56:10;;;;;;;11.60;6.28;;;;;;;2.66;62.86;94773.31;5152957;27;20412;-73
2024/03/23 00:58:36;;;;;;;11.43;7.22;;;;;;;2.53;63.15;94760.31;5129937;27;20075;-73
2024/03/23 01:01:03;;;;;;;13.82;6.75;;;;;;;2.64;63.74;94775.94;5142160;27;20049;-73
2024/03/23 01:03:29;;;;;;;11.30;6.93;;;;;;;2.56;63.91;94765.25;5143738;27;20022;-73
2024/03/23 01:05:54;;;;;;;10.18;6.53;;;;;;;2.72;63.62;94767.03;5134644;27;20050;-73
2024/03/23 01:08:20;;;;;;;9.80;6.70;;;;;;;2.53;64.23;94773.13;5100291;27;20023;-73
2024/03/23 01:10:58;;;;;;;11.43;7.00;;;;;;;2.31;64.06;94722.13;5162745;27;20030;-73
2024/03/23 01:13:24;;;;;;;10.43;6.72;;;;;;;2.47;64.30;94760.63;5117178;27;20035;-73
2024/03/23 01:15:51;;;;;;;16.23;7.70;;;;;;;2.29;65.30;94753.91;5152915;27;20034;-73
2024/03/23 01:18:17;;;;;;;12.10;7.25;;;;;;;2.38;65.26;94763.66;5113421;27;20037;-73
2024/03/23 01:20:43;;;;;;;11.70;7.03;;;;;;;2.29;64.84;94759.03;5135846;27;20052;-73
2024/03/23 01:23:08;;;;;;;12.73;7.20;;;;;;;2.21;65.57;94752.53;5117100;27;20030;-73
2024/03/23 01:25:33;;;;;;;14.90;7.35;;;;;;;2.38;65.39;94764.50;5113135;28;20042;-73
2024/03/23 01:27:59;;;;;;;12.40;6.63;;;;;;;2.34;65.73;94764.72;5119112;27;20055;-73
2024/03/23 01:30:24;;;;;;;12.30;7.63;;;;;;;2.33;64.98;94765.63;5128176;27;20059;-74
2024/03/23 01:32:50;;;;;;;13.35;7.28;;;;;;;2.30;65.25;94773.50;5116556;27;20500;-74
2024/03/23 01:35:15;;;;;;;9.77;6.47;;;;;;;2.36;65.05;94760.34;5133863;27;20034;-74
2024/03/23 01:37:40;;;;;;;13.23;7.35;;;;;;;2.29;64.80;94748.78;5159755;27;20022;-73
2024/03/23 01:40:06;;;;;;;10.65;6.90;;;;;;;2.22;64.96;94750.81;5147040;27;20428;-74
2024/03/23 01:42:32;;;;;;;12.73;7.47;;;;;;;2.20;65.50;94766.28;5131734;27;20469;-74
2024/03/23 01:44:57;;;;;;;14.05;7.63;;;;;;;2.18;65.60;94770.66;5113111;28;20075;-74
2024/03/23 01:47:22;;;;;;;11.68;7.13;;;;;;;2.11;65.06;94746.22;5143340;27;20106;-74
2024/03/23 01:49:48;;;;;;;14.18;7.85;;;;;;;2.15;64.93;94745.16;5142143;27;20064;-75
2024/03/23 01:52:13;;;;;;;12.88;7.57;;;;;;;2.25;64.61;94753.22;5130996;28;20057;-74
2024/03/23 01:54:39;;;;;;;13.35;7.30;;;;;;;2.33;64.45;94760.50;5109840;28;20054;-74
2024/03/23 01:57:04;;;;;;;11.07;6.53;;;;;;;2.32;63.91;94740.91;5114952;28;20505;-75
2024/03/23 01:59:30;;;;;;;10.02;6.60;;;;;;;2.38;64.55;94764.50;5113651;28;20063;-74
2024/03/23 02:01:55;;;;;;;12.05;6.93;;;;;;;2.10;64.97;94744.56;5109361;28;20027;-75
2024/03/23 02:04:20;;;;;;;11.98;6.63;;;;;;;2.34;63.99;94754.47;5119386;27;20079;-73
2024/03/23 02:06:46;;;;;;;11.60;6.80;;;;;;;2.41;64.91;94768.63;5134594;27;20408;-73
2024/03/23 02:09:11;;;;;;;10.20;6.25;;;;;;;2.26;64.56;94762.56;5117424;27;20401;-73
2024/03/23 02:11:36;;;;;;;13.18;6.38;;;;;;;2.45;65.31;94772.69;5117450;27;20038;-73
2024/03/23 02:14:02;;;;;;;10.15;6.47;;;;;;;2.24;65.47;94762.63;5144159;27;20029;-73
2024/03/23 02:16:27;;;;;;;9.43;6.28;;;;;;;2.31;65.19;94770.00;5150251;27;20065;-73
2024/03/23 02:18:53;;;;;;;10.45;6.22;;;;;;;2.29;64.70;94788.06;5135754;27;20031;-73
2024/03/23 02:21:18;;;;;;;9.77;6.35;;;;;;;2.28;64.28;94783.81;5116346;27;20031;-73
2024/03/23 02:23:43;;;;;;;11.50;5.78;;;;;;;2.16;64.66;94775.00;5148346;27;20027;-73
2024/03/23 02:26:09;;;;;;;10.77;6.15;;;;;;;2.26;63.89;94774.53;5144228;27;20396;-73
2024/03/23 02:28:34;;;;;;;9.27;6.35;;;;;;;2.10;63.88;94765.06;5133931;27;20035;-74
2024/03/23 02:31:01;;;;;;;10.93;6.53;;;;;;;2.17;64.41;94781.81;5132267;27;20060;-74
2024/03/23 02:33:26;;;;;;;9.68;6.07;;;;;;;2.08;64.82;94777.13;5138849;27;20061;-74
2024/03/23 02:35:55;;;;;;;10.85;6.22;;;;;;;2.07;64.70;94775.50;5133902;27;20284;-74
2024/03/23 02:38:20;;;;;;;11.82;6.82;;;;;;;2.00;64.79;94772.38;5113222;28;20056;-74
2024/03/23 02:40:46;;;;;;;10.18;6.53;;;;;;;2.05;64.79;94777.28;5101765;27;20027;-73
2024/03/23 02:43:11;;;;;;;10.77;6.30;;;;;;;1.96;65.38;94757.25;5122968;27;20028;-74
2024/03/23 02:45:37;;;;;;;11.07;6.70;;;;;;;2.07;65.35;94772.91;5078985;28;20545;-74
2024/03/23 02:48:03;;;;;;;9.57;6.25;;;;;;;2.04;65.92;94770.50;5102287;28;20019;-74
2024/03/23 02:50:29;;;;;;;12.32;7.45;;;;;;;1.96;65.65;94762.38;5125099;27;20031;-74
2024/03/23 02:52:54;;;;;;;10.85;6.55;;;;;;;1.92;65.63;94764.28;5126622;27;20473;-74
2024/03/23 02:55:20;;;;;;;11.80;6.65;;;;;;;1.86;66.05;94762.00;5113240;28;20038;-73
2024/03/23 02:57:45;;;;;;;11.65;6.70;;;;;;;1.84;65.99;94761.25;5079217;28;20030;-73
2024/03/23 03:00:11;;;;;;;11.35;6.50;;;;;;;1.77;66.03;94770.16;5111731;27;20496;-73
2024/03/23 03:02:37;;;;;;;12.60;6.45;;;;;;;1.71;66.16;94737.97;5132030;27;20019;-73
2024/03/23 03:05:04;;;;;;;13.18;6.90;;;;;;;1.80;66.57;94739.25;5095952;28;20055;-73
2024/03/23 03:07:30;;;;;;;9.77;6.47;;;;;;;1.86;66.01;94763.72;5113566;27;20032;-73
2024/03/23 03:09:56;;;;;;;12.57;6.85;;;;;;;1.72;66.11;94743.91;5113953;27;20094;-73
2024/03/23 03:12:21;;;;;;;10.70;6.43;;;;;;;1.80;67.03;94762.31;5112845;28;20035;-73
2024/03/23 03:14:47;;;;;;;10.77;6.50;;;;;;;1.60;66.60;94749.66;5095379;28;20031;-73
2024/03/23 03:17:13;;;;;;;10.70;6.60;;;;;;;1.71;66.76;94768.72;5118744;27;20024;-73
2024/03/23 03:19:38;;;;;;;11.20;6.03;;;;;;;1.62;66.48;94769.16;5094961;28;20039;-73
2024/03/23 03:22:04;;;;;;;11.45;6.20;;;;;;;1.69;66.52;94774.81;5114297;28;20047;-73
2024/03/23 03:24:29;;;;;;;14.73;6.30;;;;;;;1.61;66.37;94770.06;5113276;28;20053;-73
2024/03/23 03:26:55;;;;;;;9.93;5.80;;;;;;;1.39;66.24;94734.41;5103980;28;20024;-73
2024/03/23 03:29:20;;;;;;;9.88;6.20;;;;;;;1.60;66.20;94773.53;5093132;28;20020;-73
2024/03/23 03:31:46;;;;;;;9.10;5.55;;;;;;;1.63;65.80;94758.00;5113512;28;20035;-73
2024/03/23 03:34:11;;;;;;;10.07;5.72;;;;;;;1.75;65.70;94771.94;5131365;27;20027;-74
2024/03/23 03:36:37;;;;;;;8.80;5.82;;;;;;;1.85;64.92;94769.78;5098213;28;20032;-75
2024/03/23 03:39:06;;;;;;;9.02;5.45;;;;;;;1.96;64.96;94772.63;5134567;27;20478;-74
2024/03/23 03:41:31;;;;;;;9.68;5.90;;;;;;;2.01;64.46;94780.91;5106758;27;20027;-74
2024/03/23 03:44:01;;;;;;;9.23;5.75;;;;;;;1.84;64.09;94747.59;5139699;27;20026;-74
2024/03/23 03:46:26;;;;;;;9.88;5.30;;;;;;;1.85;64.23;94764.66;5154466;27;20117;-73
2024/03/23 03:48:52;;;;;;;12.05;5.70;;;;;;;1.84;64.45;94783.47;5118741;27;20393;-74
2024/03/23 03:51:17;;;;;;;9.15;5.85;;;;;;;1.77;64.43;94760.72;5127924;27;20431;-76
2024/03/23 03:53:42;;;;;;;9.13;5.28;;;;;;;1.68;65.04;94758.63;5139344;27;20496;-74
2024/03/23 03:56:08;;;;;;;9.80;5.97;;;;;;;1.81;64.89;94773.38;5125280;27;20031;-74
2024/03/23 03:58:33;;;;;;;9.35;5.78;;;;;;;1.80;64.71;94775.13;5115199;27;20614;-74
2024/03/23 04:00:59;;;;;;;8.77;5.55;;;;;;;1.82;64.82;94769.94;5132202;27;20030;-74
2024/03/23 04:03:24;;;;;;;8.00;5.22;;;;;;;1.65;65.29;94757.94;5121842;27;20018;-76
2024/03/23 04:05:53;;;;;;;14.05;7.13;;;;;;;1.71;65.11;94773.84;5157440;27;20030;-78
2024/03/23 04:08:19;;;;;;;29.70;14.52;;;;;;;1.51;65.45;94776.53;5117632;27;20102;-73
2024/03/23 04:10:45;;;;;;;29.13;13.98;;;;;;;1.69;64.81;94787.63;5136308;27;20079;-72
2024/03/23 04:13:11;;;;;;;37.30;17.00;;;;;;;1.51;65.70;94784.22;5135388;27;20473;-72
2024/03/23 04:15:36;;;;;;;34.55;15.63;;;;;;;1.55;65.77;94783.97;5156422;27;20031;-73
2024/03/23 04:18:02;;;;;;;23.60;12.23;;;;;;;1.32;66.20;94768.91;5133442;27;20027;-72
2024/03/23 04:20:27;;;;;;;15.88;9.00;;;;;;;1.18;65.52;94717.53;5116174;27;20107;-73
2024/03/23 04:22:53;;;;;;;14.43;8.32;;;;;;;1.63;65.30;94777.69;5133687;27;20035;-73
2024/03/23 04:25:19;;;;;;;11.15;7.60;;;;;;;1.53;65.41;94787.50;5116520;27;20035;-73
2024/03/23 04:27:45;;;;;;;10.73;6.85;;;;;;;1.13;66.68;94775.78;5152041;27;20031;-72
2024/03/23 04:30:11;;;;;;;10.98;7.10;;;;;;;1.17;66.41;94780.69;5116339;27;20476;-72
2024/03/23 04:32:39;;;;;;;11.85;7.15;;;;;;;0.92;68.09;94782.69;5118125;27;20029;-73
2024/03/23 04:35:11;;;;;;;13.43;7.35;;;;;;;0.93;67.77;94769.03;5153468;27;20039;-73
2024/03/23 04:37:36;;;;;;;;;;;;;;;0.93;67.76;94785.22;5136044;27;20030;-73
2024/03/23 04:40:03;;;;;;;12.18;6.93;;;;;;;1.00;68.19;94794.25;5153729;27;20320;-73
2024/03/23 04:42:28;;;;;;;11.70;6.95;;;;;;;1.02;68.25;94792.44;5128643;27;20026;-73
2024/03/23 04:44:54;;;;;;;12.70;7.00;;;;;;;1.07;68.37;94798.19;5150683;27;20061;-73
2024/03/23 04:47:19;;;;;;;12.45;6.63;;;;;;;1.06;68.00;94793.16;5123595;27;20023;-73
2024/03/23 04:49:45;;;;;;;10.00;5.82;;;;;;;1.02;67.76;94777.09;5111906;27;20019;-76
2024/03/23 04:52:10;;;;;;;9.55;6.03;;;;;;;1.20;67.40;94795.91;5120303;27;20035;-77
2024/03/23 04:54:35;;;;;;;9.02;5.85;;;;;;;1.15;68.62;94804.69;5100822;27;20427;-74
2024/03/23 04:57:01;;;;;;;8.98;5.93;;;;;;;1.18;68.50;94799.44;5127243;27;20027;-77
2024/03/23 04:59:26;;;;;;;9.57;5.47;;;;;;;1.03;67.81;94795.84;5134331;27;20026;-76
2024/03/23 05:01:52;;;;;;;11.45;6.45;;;;;;;0.71;69.17;94803.25;5125503;27;20050;-78
2024/03/23 05:04:17;;;;;;;9.60;5.88;;;;;;;0.83;70.11;94810.34;5107565;27;20058;-80
2024/03/23 05:06:43;;;;;;;8.90;5.32;;;;;;;1.04;68.43;94807.75;5131292;27;20110;-79
2024/03/23 05:09:11;;;;;;;11.25;5.80;;;;;;;1.14;69.24;94806.41;5145377;27;20093;-78
2024/03/23 05:11:41;;;;;;;11.23;5.50;;;;;;;1.02;68.74;94796.75;5131565;27;20023;-79
2024/03/23 05:14:07;;;;;;;10.35;5.85;;;;;;;1.14;68.37;94798.72;5113818;27;20041;-80
2024/03/23 05:16:32;;;;;;;9.60;5.68;;;;;;;1.18;68.31;94795.13;5149558;27;20035;-80
2024/03/23 05:18:58;;;;;;;7.65;5.15;;;;;;;1.38;67.09;94809.56;5146170;27;20019;-77
2024/03/23 05:21:23;;;;;;;9.25;5.60;;;;;;;1.44;67.63;94805.88;5115060;27;20034;-77
2024/03/23 05:23:48;;;;;;;8.55;5.80;;;;;;;1.44;67.87;94805.88;5124323;27;20022;-79
2024/03/23 05:26:14;;;;;;;9.70;5.50;;;;;;;1.22;68.51;94790.69;5114912;27;20043;-78
2024/03/23 05:28:40;;;;;;;9.85;6.93;;;;;;;1.34;67.95;94788.41;5112827;27;20027;-80
2024/03/23 05:31:05;;;;;;;9.20;5.80;;;;;;;1.58;68.17;94800.94;5102252;27;20031;-74
2024/03/23 05:33:31;;;;;;;9.55;6.45;;;;;;;1.85;67.04;94796.22;5112151;27;20500;-77
2024/03/23 05:36:08;;;;;;;10.05;6.97;;;;;;;2.05;66.96;94792.66;5132650;27;20031;-79
2024/03/23 05:38:33;;;;;;;8.98;5.60;;;;;;;2.43;65.58;94787.34;5081341;27;20492;-77
2024/03/23 05:40:59;;;;;;;10.48;6.00;;;;;;;2.52;65.00;94783.47;5095406;27;20039;-77
2024/03/23 05:43:25;;;;;;;8.93;6.90;;;;;;;2.71;64.21;94775.66;5095327;27;20037;-76
2024/03/23 05:46:00;;;;;;;23.38;11.02;;;;;;;3.03;63.34;94787.59;5133529;27;20035;-77
2024/03/23 05:48:28;;;;;;;12.40;7.40;;;;;;;3.48;62.29;94778.31;5131506;27;20719;-77
2024/03/23 05:50:54;;;;;;;16.50;9.02;;;;;;;3.20;62.42;94762.75;5132937;27;20456;-76
2024/03/23 05:53:22;;;;;;;10.93;6.85;;;;;;;4.30;59.64;94782.19;5093664;27;20061;-76
2024/03/23 05:55:47;;;;;;;33.97;16.23;;;;;;;4.83;57.54;94783.31;5151832;27;20037;-76
2024/03/23 05:58:14;;;;;;;20.80;12.82;;;;;;;4.80;57.00;94780.09;5115528;27;20035;-76
2024/03/23 06:00:40;;;;;;;18.63;10.73;;;;;;;5.16;55.44;94766.72;5119837;27;20033;-77
2024/03/23 06:03:05;;;;;;;15.57;10.45;;;;;;;5.93;53.18;94793.59;5113700;27;20030;-76
2024/03/23 06:05:31;;;;;;;12.35;8.70;;;;;;;6.30;53.28;94774.91;5097106;27;20038;-74
2024/03/23 06:07:56;;;;;;;13.95;8.25;;;;;;;7.25;50.94;94776.97;5115269;27;20420;-76
2024/03/23 06:10:21;;;;;;;18.77;11.05;;;;;;;6.64;50.66;94779.44;5121350;28;20096;-76
2024/03/23 06:12:47;;;;;;;25.17;14.43;;;;;;;6.97;50.73;94765.16;5126286;27;20026;-74
2024/03/23 06:15:12;;;;;;;20.23;11.02;;;;;;;8.62;46.19;94783.41;5128764;27;20123;-78
2024/03/23 06:17:38;;;;;;;23.85;12.48;;;;;;;8.87;46.54;94776.38;5144161;27;20101;-76
2024/03/23 06:20:04;;;;;;;20.55;13.05;;;;;;;8.74;44.83;94786.81;5097110;27;20029;-77
2024/03/23 06:22:29;;;;;;;15.73;9.70;;;;;;;8.49;45.55;94777.50;5121090;27;20023;-77
2024/03/23 06:24:55;;;;;;;20.85;9.82;;;;;;;8.58;46.46;94778.56;5131074;27;20435;-78
2024/03/23 06:27:20;;;;;;;12.32;8.38;;;;;;;8.59;46.59;94780.22;5086212;28;20084;-78
2024/03/23 06:29:45;;;;;;;18.13;10.23;;;;;;;7.13;48.82;94781.25;5131988;27;20053;-78
2024/03/23 06:32:11;;;;;;;21.77;9.73;;;;;;;6.57;50.85;94778.19;5112982;27;20124;-78
2024/03/23 06:34:36;;;;;;;23.52;10.95;;;;;;;6.21;52.88;94784.91;5150764;27;20022;-77
2024/03/23 06:37:03;;;;;;;17.48;10.95;;;;;;;6.69;52.36;94782.53;5112577;28;20225;-78
2024/03/23 06:39:28;;;;;;;14.52;9.00;;;;;;;7.49;50.76;94769.22;5125343;27;20043;-76
2024/03/23 06:41:54;;;;;;;19.75;9.55;;;;;;;7.52;49.91;94781.09;5131067;27;20134;-79
2024/03/23 06:44:19;;;;;;;14.45;9.27;;;;;;;8.16;48.33;94786.81;5114231;27;20067;-79
2024/03/23 06:46:45;;;;;;;15.95;9.20;;;;;;;8.50;47.37;94779.97;5115706;27;20443;-77
2024/03/23 06:49:11;;;;;;;15.98;9.40;;;;;;;8.53;47.12;94778.09;5151424;27;20412;-77
2024/03/23 06:51:37;;;;;;;14.55;9.45;;;;;;;8.41;47.21;94759.13;5147273;27;20086;-78
2024/03/23 06:54:03;;;;;;;15.55;10.07;;;;;;;7.97;48.88;94789.09;5133279;27;20492;-80
2024/03/23 06:56:29;;;;;;;19.60;9.40;;;;;;;7.30;51.02;94777.47;5135276;27;20556;-77
2024/03/23 06:58:54;;;;;;;13.85;9.52;;;;;;;7.37;51.69;94772.69;5119059;27;20038;-80
2024/03/23 07:01:19;;;;;;;15.30;9.60;;;;;;;7.04;52.45;94768.13;5094466;27;20432;-78
2024/03/23 07:03:45;;;;;;;14.10;9.20;;;;;;;7.14;52.65;94772.56;5126277;27;20033;-78
2024/03/23 07:06:10;;;;;;;17.60;10.40;;;;;;;6.96;53.09;94768.66;5099849;27;20073;-78
2024/03/23 07:08:36;;;;;;;12.52;9.10;;;;;;;7.36;52.34;94758.13;5115975;27;20027;-78
2024/03/23 07:11:02;;;;;;;16.00;9.35;;;;;;;7.66;52.33;94738.75;5144893;27;20079;-78
2024/03/23 07:13:27;;;;;;;15.23;8.10;;;;;;;8.43;49.51;94752.88;5115576;27;20035;-78
2024/03/23 07:15:54;;;;;;;15.40;8.95;;;;;;;8.85;49.46;94760.91;5099415;27;20039;-78
2024/03/23 07:18:20;;;;;;;13.52;9.13;;;;;;;8.83;49.25;94751.63;5110711;27;20084;-78
2024/03/23 07:20:56;;;;;;;14.05;8.55;;;;;;;8.25;49.53;94746.50;5101285;27;20027;-79
2024/03/23 07:23:21;;;;;;;14.45;8.13;;;;;;;8.88;49.10;94757.28;5108218;27;20509;-77
2024/03/23 07:26:02;;;;;;;14.02;8.90;;;;;;;8.13;49.69;94737.03;5135331;27;20057;-79
2024/03/23 07:28:31;;;;;;;13.40;8.20;;;;;;;8.03;50.25;94739.50;5136302;27;20029;-78
2024/03/23 07:31:14;;;;;;;13.65;8.30;;;;;;;8.16;50.16;94745.41;5135409;27;20035;-78
2024/03/23 07:33:46;;;;;;;18.10;9.48;;;;;;;8.20;50.19;94735.66;5111850;27;20022;-77
2024/03/23 07:36:12;;;;;;;12.77;8.50;;;;;;;7.87;49.01;94728.63;5098815;27;20027;-77
2024/03/23 07:38:37;;;;;;;20.92;14.75;;;;;;;7.79;49.54;94731.75;5115833;27;20051;-79
2024/03/23 07:41:09;;;;;;;11.32;8.63;;;;;;;8.58;49.15;94734.53;5124989;27;20031;-77
2024/03/23 07:43:36;;;;;;;11.95;7.00;;;;;;;8.21;48.67;94732.94;5130663;27;20561;-74
2024/03/23 07:46:01;;;;;;;10.10;6.85;;;;;;;8.21;48.71;94735.53;5113957;27;20035;-78
2024/03/23 07:48:27;;;;;;;13.93;7.13;;;;;;;8.13;48.21;94731.84;5107044;27;20023;-79
2024/03/23 07:51:00;;;;;;;10.48;6.75;;;;;;;8.40;48.33;94732.41;5097768;27;20055;-78
2024/03/23 07:53:26;;;;;;;11.38;6.63;;;;;;;8.22;47.92;94721.66;5127635;27;20054;-80
2024/03/23 07:56:00;;;;;;;13.52;6.20;;;;;;;8.91;46.95;94716.44;5135778;27;20060;-78
2024/03/23 07:58:26;;;;;;;9.30;6.68;;;;;;;9.27;45.43;94714.47;5108244;27;20042;-79
2024/03/23 08:00:55;;;;;;;9.65;6.47;;;;;;;9.32;45.42;94698.56;5135665;27;20038;-78
2024/03/23 08:03:20;;;;;;;17.50;11.73;;;;;;;8.68;46.27;94723.38;5123296;27;20155;-78
2024/03/23 08:05:46;;;;;;;9.98;6.90;;;;;;;8.78;46.01;94717.50;5135634;27;20438;-79
2024/03/23 08:08:11;;;;;;;12.98;8.52;;;;;;;9.12;46.44;94723.47;5132042;27;20037;-80
2024/03/23 08:10:38;;;;;;;12.65;8.57;;;;;;;9.35;44.83;94708.69;5152563;27;20035;-76
2024/03/23 08:13:03;;;;;;;11.40;7.30;;;;;;;9.59;44.69;94737.03;5151676;27;20023;-77
2024/03/23 08:15:33;;;;;;;13.00;6.82;;;;;;;9.54;44.51;94736.56;5126899;27;20023;-78
2024/03/23 08:17:59;;;;;;;13.07;6.82;;;;;;;9.26;45.47;94730.97;5133446;27;20038;-77
2024/03/23 08:20:24;;;;;;;10.25;7.10;;;;;;;9.11;46.98;94727.81;5116583;27;20038;-77
2024/03/23 08:22:50;;;;;;;11.88;7.25;;;;;;;9.43;47.06;94732.22;5150886;27;20083;-78
2024/03/23 08:25:16;;;;;;;10.00;7.10;;;;;;;9.20;46.60;94731.47;5116813;27;20079;-79
2024/03/23 08:27:43;;;;;;;8.88;6.70;;;;;;;9.65;45.78;94727.94;5128448;27;20019;-77
2024/03/23 08:30:09;;;;;;;9.48;7.30;;;;;;;10.00;44.59;94727.63;5153523;27;20062;-78
2024/03/23 08:32:34;;;;;;;12.18;7.88;;;;;;;9.59;45.59;94711.09;5136864;27;20035;-78
2024/03/23 08:35:00;;;;;;;10.60;6.68;;;;;;;10.26;44.38;94713.34;5127158;27;20031;-79
2024/03/23 08:37:25;;;;;;;11.73;6.75;;;;;;;10.67;43.27;94716.88;5116508;27;20030;-78
2024/03/23 08:39:51;;;;;;;10.80;7.13;;;;;;;10.55;43.52;94714.50;5135399;27;20042;-78
2024/03/23 08:42:16;;;;;;;11.35;8.35;;;;;;;10.00;44.67;94712.06;5132860;27;20151;-78
2024/03/23 08:44:46;;;;;;;9.45;6.60;;;;;;;9.91;44.71;94711.06;5121040;27;20030;-79
2024/03/23 08:47:11;;;;;;;12.82;7.90;;;;;;;9.88;44.88;94694.94;5114814;27;20416;-79
2024/03/23 08:49:37;;;;;;;12.15;7.55;;;;;;;10.20;44.78;94695.69;5118851;27;20027;-79
2024/03/23 08:52:02;;;;;;;12.55;7.40;;;;;;;9.75;44.54;94688.16;5114287;27;20034;-78
2024/03/23 08:54:29;;;;;;;19.73;12.98;;;;;;;9.74;44.91;94693.44;5106359;27;20073;-78
2024/03/23 08:56:54;;;;;;;11.68;7.03;;;;;;;9.66;44.95;94649.97;5135069;27;20492;-79
2024/03/23 08:59:20;;;;;;;10.93;6.55;;;;;;;9.82;45.39;94681.50;5128580;27;20031;-79
2024/03/23 09:01:45;;;;;;;11.75;6.50;;;;;;;10.41;44.36;94676.69;5147667;27;20079;-79
2024/03/23 09:04:11;;;;;;;8.65;6.68;;;;;;;10.25;44.92;94683.16;5100583;27;20034;-78
2024/03/23 09:06:36;;;;;;;7.93;5.70;;;;;;;10.61;44.26;94672.41;5132538;27;20110;-79
2024/03/23 09:09:02;;;;;;;7.78;5.93;;;;;;;10.53;44.13;94670.47;5142812;27;20023;-77
2024/03/23 09:11:27;;;;;;;10.57;6.30;;;;;;;10.30;43.81;94664.59;5115941;27;20031;-77
2024/03/23 09:13:52;;;;;;;9.40;6.45;;;;;;;10.49;44.27;94669.91;5114525;27;20103;-76
2024/03/23 09:16:18;;;;;;;8.05;6.30;;;;;;;10.20;44.18;94646.38;5131076;27;20022;-76
2024/03/23 09:18:45;;;;;;;11.63;5.75;;;;;;;10.38;44.43;94659.59;5132118;27;20023;-76
2024/03/23 09:21:13;;;;;;;8.85;6.60;;;;;;;10.34;43.97;94657.41;5150138;27;20055;-79
2024/03/23 09:23:39;;;;;;;9.30;5.72;;;;;;;10.33;43.76;94660.94;5127841;27;20031;-79
2024/03/23 09:26:04;;;;;;;8.10;5.63;;;;;;;10.69;43.31;94639.63;5133840;27;20095;-79
2024/03/23 09:28:30;;;;;;;8.02;5.90;;;;;;;10.65;42.89;94642.63;5146649;27;20019;-78
2024/03/23 09:31:01;;;;;;;8.18;5.38;;;;;;;10.58;42.84;94620.72;5134577;27;20493;-78
2024/03/23 09:33:27;;;;;;;12.98;5.82;;;;;;;10.63;42.90;94632.34;5092539;27;20031;-78
2024/03/23 09:35:52;;;;;;;8.77;5.65;;;;;;;10.79;42.18;94623.25;5111658;27;20038;-76
2024/03/23 09:38:17;;;;;;;6.97;4.90;;;;;;;10.88;40.28;94628.47;5128187;27;20060;-78
2024/03/23 09:40:43;;;;;;;9.98;5.45;;;;;;;10.76;41.04;94629.53;5128707;27;20042;-78
2024/03/23 09:43:09;;;;;;;8.68;5.47;;;;;;;11.23;40.84;94624.56;5125886;27;20047;-78
2024/03/23 09:45:38;;;;;;;18.83;11.00;;;;;;;11.12;41.67;94622.91;5129367;27;20034;-78
2024/03/23 09:48:03;;;;;;;6.45;4.90;;;;;;;11.50;38.47;94616.06;5128328;27;20089;-77
2024/03/23 09:50:29;;;;;;;8.30;5.20;;;;;;;11.43;39.45;94607.19;5109604;28;20070;-78
2024/03/23 09:52:54;;;;;;;7.68;5.85;;;;;;;11.78;39.67;94591.00;5105574;28;20035;-78
2024/03/23 09:55:20;;;;;;;7.10;5.07;;;;;;;12.04;37.71;94601.66;5108946;28;20479;-77
2024/03/23 09:57:45;;;;;;;9.20;5.68;;;;;;;11.63;39.23;94572.38;5106476;28;20023;-78
2024/03/23 10:00:12;;;;;;;8.80;5.95;;;;;;;11.69;40.06;94594.44;5104679;28;20533;-77
2024/03/23 10:02:37;;;;;;;12.68;7.90;;;;;;;11.71;40.21;94579.50;5119717;28;20072;-78
2024/03/23 10:05:03;;;;;;;7.40;4.47;;;;;;;12.33;38.02;94590.31;5110783;28;20031;-78
2024/03/23 10:07:29;;;;;;;9.77;5.53;;;;;;;11.97;39.47;94571.13;5127457;27;20039;-78
2024/03/23 10:09:54;;;;;;;7.45;5.07;;;;;;;11.79;38.45;94573.59;5122677;28;20011;-77
2024/03/23 10:12:20;;;;;;;8.23;5.00;;;;;;;12.21;38.10;94571.47;5108219;28;20521;-77
2024/03/23 10:14:46;;;;;;;5.97;4.80;;;;;;;12.27;36.62;94575.28;5122061;28;20027;-77
2024/03/23 10:17:18;;;;;;;8.50;5.10;;;;;;;12.31;37.67;94576.63;5099095;28;20027;-78
2024/03/23 10:19:47;;;;;;;8.40;5.10;;;;;;;12.43;38.56;94562.47;5124017;28;20203;-77
2024/03/23 10:22:14;;;;;;;7.18;4.82;;;;;;;12.46;39.54;94563.97;5124978;28;20039;-77
2024/03/23 10:24:39;;;;;;;8.68;5.32;;;;;;;12.39;38.26;94555.88;5110357;28;20222;-77
2024/03/23 10:27:05;;;;;;;7.85;5.28;;;;;;;12.74;37.35;94556.94;5095122;27;20023;-77
2024/03/23 10:29:31;;;;;;;9.18;4.88;;;;;;;12.95;37.22;94554.06;5132182;27;20030;-78
2024/03/23 10:32:12;;;;;;;11.20;6.03;;;;;;;12.62;38.46;94542.47;5129359;27;20432;-77
2024/03/23 10:34:38;;;;;;;7.97;4.75;;;;;;;12.77;38.01;94530.59;5113501;27;20030;-77
2024/03/23 10:37:04;;;;;;;9.10;5.50;;;;;;;12.93;37.53;94538.59;5114209;27;20401;-78
2024/03/23 10:39:34;;;;;;;8.65;5.38;;;;;;;12.91;36.75;94537.91;5133494;27;20100;-77
2024/03/23 10:42:04;;;;;;;6.63;4.95;;;;;;;13.14;36.15;94522.63;5112264;27;20031;-79
2024/03/23 10:44:30;;;;;;;8.45;4.93;;;;;;;13.12;37.71;94518.53;5099357;27;20027;-78
2024/03/23 10:46:59;;;;;;;6.65;4.63;;;;;;;12.99;37.47;94513.69;5132374;27;20092;-79
2024/03/23 10:49:34;;;;;;;7.82;4.63;;;;;;;13.13;36.77;94509.75;5115802;27;20121;-79
2024/03/23 10:51:59;;;;;;;8.60;4.47;;;;;;;13.33;36.57;94513.84;5131629;27;20031;-78
2024/03/23 10:54:25;;;;;;;6.13;4.38;;;;;;;13.40;35.23;94496.63;5131639;27;20481;-79
2024/03/23 10:56:53;;;;;;;5.65;4.30;;;;;;;13.56;36.17;94501.13;5115641;27;20031;-79
2024/03/23 10:59:19;;;;;;;7.68;5.25;;;;;;;13.23;35.58;94489.59;5131797;27;20031;-78
2024/03/23 11:01:54;;;;;;;7.78;4.95;;;;;;;13.28;36.59;94487.41;5099078;27;20469;-79
2024/03/23 11:04:33;;;;;;;13.93;5.43;;;;;;;13.31;36.65;94484.47;5114288;27;20489;-78
2024/03/23 11:06:58;;;;;;;7.95;5.25;;;;;;;13.36;36.94;94469.19;5134257;27;20239;-78
2024/03/23 11:09:45;;;;;;;8.02;5.10;;;;;;;13.27;36.71;94475.34;5114381;27;20050;-78
2024/03/23 11:12:33;;;;;;;6.28;4.53;;;;;;;13.67;35.68;94462.72;5094368;27;20108;-80
2024/03/23 11:15:00;;;;;;;7.80;4.70;;;;;;;13.57;35.22;94461.03;5113568;27;20042;-79
2024/03/23 11:17:26;;;;;;;7.50;4.32;;;;;;;13.81;33.73;94451.69;5132351;27;20118;-77
2024/03/23 11:19:56;;;;;;;7.40;4.57;;;;;;;14.25;33.59;94451.56;5115704;27;20094;-78
2024/03/23 11:22:37;;;;;;;6.38;4.18;;;;;;;14.19;33.39;94449.59;5129936;27;20054;-77
2024/03/23 11:25:03;;;;;;;8.10;5.28;;;;;;;14.16;32.99;94432.44;5134398;27;20619;-76
2024/03/23 11:27:28;;;;;;;7.30;3.78;;;;;;;14.00;33.58;94416.69;5131719;27;20114;-77
2024/03/23 11:29:53;;;;;;;5.35;4.00;;;;;;;14.23;32.99;94416.94;5133191;27;20023;-78